sensor_id;sensor_type;location;lat;lon;timestamp;P1;durP1;ratioP1;P2;durP2;ratioP2
7316;SDS011;3699;51.462;6.696;2023-04-15T00:00:38;12.50;;;9.10;;
7316;SDS011;3699;51.462;6.696;2023-04-15T00:03:05;13.73;;;8.23;;
7316;SDS011;3699;51.462;6.696;2023-04-15T00:05:32;15.33;;;8.73;;
7316;SDS011;3699;51.462;6.696;2023-04-15T00:07:59;21.33;;;8.77;;
7316;SDS011;3699;51.462;6.696;2023-04-15T00:10:27;13.73;;;9.47;;
7316;SDS011;3699;51.462;6.696;2023-04-15T00:12:54;14.17;;;9.87;;
7316;SDS011;3699;51.462;6.696;2023-04-15T00:15:21;12.70;;;9.80;;
7316;SDS011;3699;51.462;6.696;2023-04-15T00:17:48;19.07;;;9.60;;
7316;SDS011;3699;51.462;6.696;2023-04-15T00:20:16;17.60;;;9.50;;
7316;SDS011;3699;51.462;6.696;2023-04-15T00:22:43;17.97;;;10.27;;
7316;SDS011;3699;51.462;6.696;2023-04-15T00:25:10;12.13;;;9.20;;
7316;SDS011;3699;51.462;6.696;2023-04-15T00:27:38;14.93;;;9.03;;
7316;SDS011;3699;51.462;6.696;2023-04-15T00:30:05;18.30;;;9.70;;
7316;SDS011;3699;51.462;6.696;2023-04-15T00:32:33;16.67;;;9.23;;
7316;SDS011;3699;51.462;6.696;2023-04-15T00:34:59;16.17;;;9.97;;
7316;SDS011;3699;51.462;6.696;2023-04-15T00:37:26;17.00;;;9.50;;
7316;SDS011;3699;51.462;6.696;2023-04-15T00:39:53;14.23;;;9.10;;
7316;SDS011;3699;51.462;6.696;2023-04-15T00:42:19;17.50;;;9.80;;
7316;SDS011;3699;51.462;6.696;2023-04-15T00:44:48;16.47;;;10.77;;
7316;SDS011;3699;51.462;6.696;2023-04-15T00:47:14;13.47;;;9.20;;
7316;SDS011;3699;51.462;6.696;2023-04-15T00:49:42;13.63;;;9.53;;
7316;SDS011;3699;51.462;6.696;2023-04-15T00:52:09;14.20;;;9.50;;
7316;SDS011;3699;51.462;6.696;2023-04-15T00:54:35;16.90;;;9.30;;
7316;SDS011;3699;51.462;6.696;2023-04-15T00:57:04;17.97;;;9.70;;
7316;SDS011;3699;51.462;6.696;2023-04-15T00:59:32;11.87;;;9.30;;
7316;SDS011;3699;51.462;6.696;2023-04-15T01:02:00;12.90;;;9.97;;
7316;SDS011;3699;51.462;6.696;2023-04-15T01:04:27;16.43;;;9.83;;
7316;SDS011;3699;51.462;6.696;2023-04-15T01:06:54;14.20;;;9.00;;
7316;SDS011;3699;51.462;6.696;2023-04-15T01:09:21;12.03;;;9.10;;
7316;SDS011;3699;51.462;6.696;2023-04-15T01:11:48;16.23;;;9.53;;
7316;SDS011;3699;51.462;6.696;2023-04-15T01:14:15;17.87;;;9.43;;
7316;SDS011;3699;51.462;6.696;2023-04-15T01:16:41;17.47;;;10.70;;
7316;SDS011;3699;51.462;6.696;2023-04-15T01:19:10;15.27;;;9.97;;
7316;SDS011;3699;51.462;6.696;2023-04-15T01:21:39;12.43;;;9.30;;
7316;SDS011;3699;51.462;6.696;2023-04-15T01:24:07;13.63;;;9.90;;
7316;SDS011;3699;51.462;6.696;2023-04-15T01:26:37;13.53;;;9.40;;
7316;SDS011;3699;51.462;6.696;2023-04-15T01:29:03;15.13;;;10.10;;
7316;SDS011;3699;51.462;6.696;2023-04-15T01:31:30;13.80;;;10.37;;
7316;SDS011;3699;51.462;6.696;2023-04-15T01:33:57;24.60;;;10.80;;
7316;SDS011;3699;51.462;6.696;2023-04-15T01:36:24;14.40;;;10.60;;
7316;SDS011;3699;51.462;6.696;2023-04-15T01:38:51;16.90;;;10.80;;
7316;SDS011;3699;51.462;6.696;2023-04-15T01:41:20;17.33;;;10.20;;
7316;SDS011;3699;51.462;6.696;2023-04-15T01:43:50;15.53;;;10.57;;
7316;SDS011;3699;51.462;6.696;2023-04-15T01:46:17;17.10;;;10.77;;
7316;SDS011;3699;51.462;6.696;2023-04-15T01:48:44;14.90;;;10.70;;
7316;SDS011;3699;51.462;6.696;2023-04-15T01:51:11;15.00;;;10.93;;
7316;SDS011;3699;51.462;6.696;2023-04-15T01:53:38;16.43;;;11.00;;
7316;SDS011;3699;51.462;6.696;2023-04-15T01:56:04;17.07;;;11.57;;
7316;SDS011;3699;51.462;6.696;2023-04-15T01:58:32;15.73;;;10.80;;
7316;SDS011;3699;51.462;6.696;2023-04-15T02:01:00;17.47;;;11.93;;
7316;SDS011;3699;51.462;6.696;2023-04-15T02:03:28;35.60;;;13.13;;
7316;SDS011;3699;51.462;6.696;2023-04-15T02:05:54;18.97;;;11.47;;
7316;SDS011;3699;51.462;6.696;2023-04-15T02:08:21;18.57;;;11.23;;
7316;SDS011;3699;51.462;6.696;2023-04-15T02:10:48;18.37;;;10.87;;
7316;SDS011;3699;51.462;6.696;2023-04-15T02:13:15;14.23;;;10.73;;
7316;SDS011;3699;51.462;6.696;2023-04-15T02:15:45;19.93;;;11.43;;
7316;SDS011;3699;51.462;6.696;2023-04-15T02:18:14;16.83;;;10.93;;
7316;SDS011;3699;51.462;6.696;2023-04-15T02:20:40;17.00;;;10.60;;
7316;SDS011;3699;51.462;6.696;2023-04-15T02:23:08;19.93;;;11.27;;
7316;SDS011;3699;51.462;6.696;2023-04-15T02:25:35;15.50;;;10.17;;
7316;SDS011;3699;51.462;6.696;2023-04-15T02:28:03;18.20;;;10.97;;
7316;SDS011;3699;51.462;6.696;2023-04-15T02:30:30;16.00;;;10.30;;
7316;SDS011;3699;51.462;6.696;2023-04-15T02:32:57;15.80;;;10.27;;
7316;SDS011;3699;51.462;6.696;2023-04-15T02:35:25;14.60;;;10.50;;
7316;SDS011;3699;51.462;6.696;2023-04-15T02:37:52;14.43;;;10.57;;
7316;SDS011;3699;51.462;6.696;2023-04-15T02:40:19;20.30;;;11.27;;
7316;SDS011;3699;51.462;6.696;2023-04-15T02:42:46;17.13;;;11.60;;
7316;SDS011;3699;51.462;6.696;2023-04-15T02:45:13;16.83;;;11.10;;
7316;SDS011;3699;51.462;6.696;2023-04-15T02:47:40;15.37;;;10.70;;
7316;SDS011;3699;51.462;6.696;2023-04-15T02:50:07;18.27;;;11.27;;
7316;SDS011;3699;51.462;6.696;2023-04-15T02:52:37;13.97;;;10.27;;
7316;SDS011;3699;51.462;6.696;2023-04-15T02:55:05;17.53;;;10.80;;
7316;SDS011;3699;51.462;6.696;2023-04-15T02:57:33;18.50;;;11.03;;
7316;SDS011;3699;51.462;6.696;2023-04-15T03:00:03;23.80;;;11.60;;
7316;SDS011;3699;51.462;6.696;2023-04-15T03:02:32;16.80;;;11.80;;
7316;SDS011;3699;51.462;6.696;2023-04-15T03:04:59;16.10;;;10.30;;
7316;SDS011;3699;51.462;6.696;2023-04-15T03:07:26;18.50;;;10.97;;
7316;SDS011;3699;51.462;6.696;2023-04-15T03:09:54;14.73;;;10.43;;
7316;SDS011;3699;51.462;6.696;2023-04-15T03:12:21;15.33;;;10.77;;
7316;SDS011;3699;51.462;6.696;2023-04-15T03:14:48;14.60;;;10.57;;
7316;SDS011;3699;51.462;6.696;2023-04-15T03:17:15;19.60;;;11.43;;
7316;SDS011;3699;51.462;6.696;2023-04-15T03:19:42;17.47;;;11.33;;
7316;SDS011;3699;51.462;6.696;2023-04-15T03:22:09;14.17;;;10.70;;
7316;SDS011;3699;51.462;6.696;2023-04-15T03:24:36;15.63;;;11.43;;
7316;SDS011;3699;51.462;6.696;2023-04-15T03:27:04;14.67;;;11.10;;
7316;SDS011;3699;51.462;6.696;2023-04-15T03:29:32;18.37;;;11.20;;
7316;SDS011;3699;51.462;6.696;2023-04-15T03:31:59;18.17;;;11.80;;
7316;SDS011;3699;51.462;6.696;2023-04-15T03:34:25;15.83;;;10.57;;
7316;SDS011;3699;51.462;6.696;2023-04-15T03:36:52;17.47;;;11.70;;
7316;SDS011;3699;51.462;6.696;2023-04-15T03:39:19;16.50;;;10.40;;
7316;SDS011;3699;51.462;6.696;2023-04-15T03:41:46;17.00;;;11.63;;
7316;SDS011;3699;51.462;6.696;2023-04-15T03:44:14;16.17;;;10.80;;
7316;SDS011;3699;51.462;6.696;2023-04-15T03:46:41;14.93;;;10.80;;
7316;SDS011;3699;51.462;6.696;2023-04-15T03:49:08;15.53;;;10.57;;
7316;SDS011;3699;51.462;6.696;2023-04-15T03:51:35;16.73;;;11.47;;
7316;SDS011;3699;51.462;6.696;2023-04-15T03:54:01;18.77;;;10.67;;
7316;SDS011;3699;51.462;6.696;2023-04-15T03:56:28;17.30;;;10.37;;
7316;SDS011;3699;51.462;6.696;2023-04-15T03:58:55;18.50;;;12.00;;
7316;SDS011;3699;51.462;6.696;2023-04-15T04:01:23;17.70;;;11.50;;
7316;SDS011;3699;51.462;6.696;2023-04-15T04:03:50;21.80;;;11.20;;
7316;SDS011;3699;51.462;6.696;2023-04-15T04:06:17;16.10;;;11.03;;
7316;SDS011;3699;51.462;6.696;2023-04-15T04:08:43;17.60;;;10.80;;
7316;SDS011;3699;51.462;6.696;2023-04-15T04:11:10;15.80;;;10.33;;
7316;SDS011;3699;51.462;6.696;2023-04-15T04:13:37;18.17;;;10.73;;
7316;SDS011;3699;51.462;6.696;2023-04-15T04:16:04;21.03;;;11.40;;
7316;SDS011;3699;51.462;6.696;2023-04-15T04:18:33;18.67;;;10.50;;
7316;SDS011;3699;51.462;6.696;2023-04-15T04:21:00;17.57;;;11.23;;
7316;SDS011;3699;51.462;6.696;2023-04-15T04:23:27;17.47;;;11.43;;
7316;SDS011;3699;51.462;6.696;2023-04-15T04:25:53;16.97;;;10.77;;
7316;SDS011;3699;51.462;6.696;2023-04-15T04:28:20;13.27;;;10.10;;
7316;SDS011;3699;51.462;6.696;2023-04-15T04:30:47;18.90;;;10.63;;
7316;SDS011;3699;51.462;6.696;2023-04-15T04:33:14;17.20;;;10.47;;
7316;SDS011;3699;51.462;6.696;2023-04-15T04:35:42;16.37;;;10.93;;
7316;SDS011;3699;51.462;6.696;2023-04-15T04:38:09;17.07;;;11.20;;
7316;SDS011;3699;51.462;6.696;2023-04-15T04:40:36;15.93;;;10.83;;
7316;SDS011;3699;51.462;6.696;2023-04-15T04:43:03;13.57;;;10.30;;
7316;SDS011;3699;51.462;6.696;2023-04-15T04:45:29;13.60;;;10.27;;
7316;SDS011;3699;51.462;6.696;2023-04-15T04:47:56;18.83;;;11.83;;
7316;SDS011;3699;51.462;6.696;2023-04-15T04:50:23;15.90;;;10.70;;
7316;SDS011;3699;51.462;6.696;2023-04-15T04:52:51;16.97;;;10.07;;
7316;SDS011;3699;51.462;6.696;2023-04-15T04:55:18;17.90;;;11.87;;
7316;SDS011;3699;51.462;6.696;2023-04-15T04:57:45;21.37;;;12.50;;
7316;SDS011;3699;51.462;6.696;2023-04-15T05:00:12;16.83;;;11.40;;
7316;SDS011;3699;51.462;6.696;2023-04-15T05:02:39;15.30;;;10.77;;
7316;SDS011;3699;51.462;6.696;2023-04-15T05:05:08;16.23;;;12.17;;
7316;SDS011;3699;51.462;6.696;2023-04-15T05:07:35;18.80;;;11.30;;
7316;SDS011;3699;51.462;6.696;2023-04-15T05:10:04;17.10;;;10.60;;
7316;SDS011;3699;51.462;6.696;2023-04-15T05:12:31;17.27;;;11.10;;
7316;SDS011;3699;51.462;6.696;2023-04-15T05:14:58;16.03;;;11.33;;
7316;SDS011;3699;51.462;6.696;2023-04-15T05:17:25;18.03;;;10.97;;
7316;SDS011;3699;51.462;6.696;2023-04-15T05:19:51;14.00;;;10.37;;
7316;SDS011;3699;51.462;6.696;2023-04-15T05:22:18;14.40;;;9.47;;
7316;SDS011;3699;51.462;6.696;2023-04-15T05:24:45;16.83;;;11.43;;
7316;SDS011;3699;51.462;6.696;2023-04-15T05:27:13;15.83;;;10.70;;
7316;SDS011;3699;51.462;6.696;2023-04-15T05:29:39;20.03;;;11.80;;
7316;SDS011;3699;51.462;6.696;2023-04-15T05:32:06;14.67;;;10.33;;
7316;SDS011;3699;51.462;6.696;2023-04-15T05:34:33;14.20;;;10.07;;
7316;SDS011;3699;51.462;6.696;2023-04-15T05:37:00;17.07;;;11.73;;
7316;SDS011;3699;51.462;6.696;2023-04-15T05:39:27;14.63;;;10.00;;
7316;SDS011;3699;51.462;6.696;2023-04-15T05:41:54;13.10;;;10.00;;
7316;SDS011;3699;51.462;6.696;2023-04-15T05:44:23;14.03;;;9.50;;
7316;SDS011;3699;51.462;6.696;2023-04-15T05:46:49;16.23;;;10.13;;
7316;SDS011;3699;51.462;6.696;2023-04-15T05:49:16;14.80;;;9.87;;
7316;SDS011;3699;51.462;6.696;2023-04-15T05:51:43;13.83;;;9.60;;
7316;SDS011;3699;51.462;6.696;2023-04-15T05:54:12;15.13;;;9.80;;
7316;SDS011;3699;51.462;6.696;2023-04-15T05:56:38;14.93;;;9.90;;
7316;SDS011;3699;51.462;6.696;2023-04-15T05:59:05;17.63;;;10.17;;
7316;SDS011;3699;51.462;6.696;2023-04-15T06:01:33;13.50;;;9.93;;
7316;SDS011;3699;51.462;6.696;2023-04-15T06:04:00;15.57;;;10.57;;
7316;SDS011;3699;51.462;6.696;2023-04-15T06:06:27;15.50;;;10.53;;
7316;SDS011;3699;51.462;6.696;2023-04-15T06:08:54;18.43;;;10.60;;
7316;SDS011;3699;51.462;6.696;2023-04-15T06:11:21;13.37;;;11.17;;
7316;SDS011;3699;51.462;6.696;2023-04-15T06:13:48;16.73;;;11.60;;
7316;SDS011;3699;51.462;6.696;2023-04-15T06:16:14;18.37;;;11.20;;
7316;SDS011;3699;51.462;6.696;2023-04-15T06:18:43;15.40;;;11.00;;
7316;SDS011;3699;51.462;6.696;2023-04-15T06:21:10;15.97;;;10.60;;
7316;SDS011;3699;51.462;6.696;2023-04-15T06:23:36;15.03;;;11.47;;
7316;SDS011;3699;51.462;6.696;2023-04-15T06:26:05;15.47;;;11.27;;
7316;SDS011;3699;51.462;6.696;2023-04-15T06:28:31;16.57;;;10.97;;
7316;SDS011;3699;51.462;6.696;2023-04-15T06:30:58;18.43;;;12.07;;
7316;SDS011;3699;51.462;6.696;2023-04-15T06:33:25;16.50;;;10.90;;
7316;SDS011;3699;51.462;6.696;2023-04-15T06:35:53;16.40;;;11.43;;
7316;SDS011;3699;51.462;6.696;2023-04-15T06:38:20;15.97;;;10.77;;
7316;SDS011;3699;51.462;6.696;2023-04-15T06:40:46;14.90;;;10.83;;
7316;SDS011;3699;51.462;6.696;2023-04-15T06:43:13;16.47;;;11.47;;
7316;SDS011;3699;51.462;6.696;2023-04-15T06:45:40;15.13;;;10.93;;
7316;SDS011;3699;51.462;6.696;2023-04-15T06:48:06;16.23;;;10.83;;
7316;SDS011;3699;51.462;6.696;2023-04-15T06:50:33;15.80;;;11.67;;
7316;SDS011;3699;51.462;6.696;2023-04-15T06:53:02;17.70;;;12.63;;
7316;SDS011;3699;51.462;6.696;2023-04-15T06:55:28;17.57;;;12.40;;
7316;SDS011;3699;51.462;6.696;2023-04-15T06:57:55;21.93;;;12.07;;
7316;SDS011;3699;51.462;6.696;2023-04-15T07:00:22;16.50;;;12.57;;
7316;SDS011;3699;51.462;6.696;2023-04-15T07:02:50;13.00;;;10.80;;
7316;SDS011;3699;51.462;6.696;2023-04-15T07:05:17;15.47;;;11.93;;
7316;SDS011;3699;51.462;6.696;2023-04-15T07:07:44;14.83;;;11.27;;
7316;SDS011;3699;51.462;6.696;2023-04-15T07:10:12;15.60;;;10.70;;
7316;SDS011;3699;51.462;6.696;2023-04-15T07:12:39;15.43;;;10.23;;
7316;SDS011;3699;51.462;6.696;2023-04-15T07:15:06;13.03;;;9.93;;
7316;SDS011;3699;51.462;6.696;2023-04-15T07:17:34;10.57;;;8.40;;
7316;SDS011;3699;51.462;6.696;2023-04-15T07:20:01;11.27;;;7.80;;
7316;SDS011;3699;51.462;6.696;2023-04-15T07:22:28;12.80;;;8.03;;
7316;SDS011;3699;51.462;6.696;2023-04-15T07:24:55;11.27;;;6.93;;
7316;SDS011;3699;51.462;6.696;2023-04-15T07:27:23;8.17;;;5.67;;
7316;SDS011;3699;51.462;6.696;2023-04-15T07:29:49;8.10;;;6.07;;
7316;SDS011;3699;51.462;6.696;2023-04-15T07:32:16;7.60;;;5.83;;
7316;SDS011;3699;51.462;6.696;2023-04-15T07:34:43;7.47;;;5.87;;
7316;SDS011;3699;51.462;6.696;2023-04-15T07:37:10;8.57;;;6.33;;
7316;SDS011;3699;51.462;6.696;2023-04-15T07:39:37;10.37;;;6.50;;
7316;SDS011;3699;51.462;6.696;2023-04-15T07:42:04;9.37;;;6.17;;
7316;SDS011;3699;51.462;6.696;2023-04-15T07:44:32;7.10;;;4.90;;
7316;SDS011;3699;51.462;6.696;2023-04-15T07:47:00;7.87;;;5.60;;
7316;SDS011;3699;51.462;6.696;2023-04-15T07:49:27;7.73;;;5.73;;
7316;SDS011;3699;51.462;6.696;2023-04-15T07:51:54;7.43;;;5.60;;
7316;SDS011;3699;51.462;6.696;2023-04-15T07:54:21;8.63;;;5.87;;
7316;SDS011;3699;51.462;6.696;2023-04-15T07:56:48;8.67;;;5.57;;
7316;SDS011;3699;51.462;6.696;2023-04-15T07:59:15;12.50;;;6.40;;
7316;SDS011;3699;51.462;6.696;2023-04-15T08:01:44;8.07;;;5.30;;
7316;SDS011;3699;51.462;6.696;2023-04-15T08:04:10;11.07;;;4.87;;
7316;SDS011;3699;51.462;6.696;2023-04-15T08:06:37;11.83;;;5.03;;
7316;SDS011;3699;51.462;6.696;2023-04-15T08:09:04;11.93;;;5.27;;
7316;SDS011;3699;51.462;6.696;2023-04-15T08:11:31;9.20;;;4.93;;
7316;SDS011;3699;51.462;6.696;2023-04-15T08:13:58;9.47;;;5.10;;
7316;SDS011;3699;51.462;6.696;2023-04-15T08:16:25;9.23;;;5.13;;
7316;SDS011;3699;51.462;6.696;2023-04-15T08:18:54;10.67;;;6.20;;
7316;SDS011;3699;51.462;6.696;2023-04-15T08:21:21;7.07;;;5.30;;
7316;SDS011;3699;51.462;6.696;2023-04-15T08:23:48;8.93;;;5.93;;
7316;SDS011;3699;51.462;6.696;2023-04-15T08:26:17;9.17;;;5.27;;
7316;SDS011;3699;51.462;6.696;2023-04-15T08:28:44;6.97;;;4.87;;
7316;SDS011;3699;51.462;6.696;2023-04-15T08:31:12;8.47;;;5.13;;
7316;SDS011;3699;51.462;6.696;2023-04-15T08:33:40;7.80;;;5.30;;
7316;SDS011;3699;51.462;6.696;2023-04-15T08:36:08;7.10;;;4.53;;
7316;SDS011;3699;51.462;6.696;2023-04-15T08:38:36;5.80;;;4.20;;
7316;SDS011;3699;51.462;6.696;2023-04-15T08:41:03;5.03;;;3.63;;
7316;SDS011;3699;51.462;6.696;2023-04-15T08:43:38;6.10;;;4.87;;
7316;SDS011;3699;51.462;6.696;2023-04-15T08:46:09;6.80;;;4.50;;
7316;SDS011;3699;51.462;6.696;2023-04-15T08:48:37;4.57;;;4.07;;
7316;SDS011;3699;51.462;6.696;2023-04-15T08:51:05;5.57;;;4.27;;
7316;SDS011;3699;51.462;6.696;2023-04-15T08:53:33;6.03;;;4.77;;
7316;SDS011;3699;51.462;6.696;2023-04-15T08:56:01;8.37;;;4.50;;
7316;SDS011;3699;51.462;6.696;2023-04-15T08:58:32;5.47;;;3.93;;
7316;SDS011;3699;51.462;6.696;2023-04-15T09:01:00;5.87;;;3.97;;
7316;SDS011;3699;51.462;6.696;2023-04-15T09:03:27;4.53;;;4.00;;
7316;SDS011;3699;51.462;6.696;2023-04-15T09:05:55;5.07;;;4.37;;
7316;SDS011;3699;51.462;6.696;2023-04-15T09:08:22;6.17;;;4.77;;
7316;SDS011;3699;51.462;6.696;2023-04-15T09:10:50;4.60;;;4.13;;
7316;SDS011;3699;51.462;6.696;2023-04-15T09:13:18;6.70;;;4.33;;
7316;SDS011;3699;51.462;6.696;2023-04-15T09:15:46;5.87;;;4.30;;
7316;SDS011;3699;51.462;6.696;2023-04-15T09:18:13;3.87;;;3.40;;
7316;SDS011;3699;51.462;6.696;2023-04-15T09:20:52;4.10;;;3.70;;
7316;SDS011;3699;51.462;6.696;2023-04-15T09:23:19;6.73;;;4.37;;
7316;SDS011;3699;51.462;6.696;2023-04-15T09:25:46;4.73;;;4.03;;
7316;SDS011;3699;51.462;6.696;2023-04-15T09:28:22;6.60;;;4.57;;
7316;SDS011;3699;51.462;6.696;2023-04-15T09:30:50;7.80;;;4.33;;
7316;SDS011;3699;51.462;6.696;2023-04-15T09:33:20;5.17;;;4.67;;
7316;SDS011;3699;51.462;6.696;2023-04-15T09:35:55;6.60;;;5.43;;
7316;SDS011;3699;51.462;6.696;2023-04-15T09:38:23;9.00;;;5.63;;
7316;SDS011;3699;51.462;6.696;2023-04-15T09:40:49;6.40;;;5.07;;
7316;SDS011;3699;51.462;6.696;2023-04-15T09:43:18;9.83;;;6.00;;
7316;SDS011;3699;51.462;6.696;2023-04-15T09:45:46;9.07;;;5.07;;
7316;SDS011;3699;51.462;6.696;2023-04-15T09:48:15;7.67;;;5.03;;
7316;SDS011;3699;51.462;6.696;2023-04-15T09:50:44;8.77;;;4.57;;
7316;SDS011;3699;51.462;6.696;2023-04-15T09:53:14;9.53;;;5.77;;
7316;SDS011;3699;51.462;6.696;2023-04-15T09:55:42;10.13;;;5.50;;
7316;SDS011;3699;51.462;6.696;2023-04-15T09:58:17;11.53;;;5.93;;
7316;SDS011;3699;51.462;6.696;2023-04-15T10:00:45;7.30;;;5.30;;
7316;SDS011;3699;51.462;6.696;2023-04-15T10:03:12;10.50;;;6.00;;
7316;SDS011;3699;51.462;6.696;2023-04-15T10:05:43;9.73;;;5.87;;
7316;SDS011;3699;51.462;6.696;2023-04-15T10:08:11;6.40;;;5.70;;
7316;SDS011;3699;51.462;6.696;2023-04-15T10:10:38;6.53;;;5.40;;
7316;SDS011;3699;51.462;6.696;2023-04-15T10:13:05;7.90;;;5.53;;
7316;SDS011;3699;51.462;6.696;2023-04-15T10:15:34;8.27;;;5.27;;
7316;SDS011;3699;51.462;6.696;2023-04-15T10:18:01;5.50;;;4.90;;
7316;SDS011;3699;51.462;6.696;2023-04-15T10:20:30;5.73;;;4.90;;
7316;SDS011;3699;51.462;6.696;2023-04-15T10:22:57;6.80;;;5.30;;
7316;SDS011;3699;51.462;6.696;2023-04-15T10:25:24;5.97;;;5.30;;
7316;SDS011;3699;51.462;6.696;2023-04-15T10:27:52;9.10;;;6.90;;
7316;SDS011;3699;51.462;6.696;2023-04-15T10:30:20;7.67;;;6.47;;
7316;SDS011;3699;51.462;6.696;2023-04-15T10:32:49;7.37;;;5.97;;
7316;SDS011;3699;51.462;6.696;2023-04-15T10:35:15;6.07;;;5.47;;
7316;SDS011;3699;51.462;6.696;2023-04-15T10:37:43;6.77;;;6.07;;
7316;SDS011;3699;51.462;6.696;2023-04-15T10:40:23;8.50;;;5.53;;
7316;SDS011;3699;51.462;6.696;2023-04-15T10:42:52;5.77;;;4.93;;
7316;SDS011;3699;51.462;6.696;2023-04-15T10:45:20;7.50;;;6.20;;
7316;SDS011;3699;51.462;6.696;2023-04-15T10:47:51;6.27;;;5.00;;
7316;SDS011;3699;51.462;6.696;2023-04-15T10:50:20;5.43;;;4.83;;
7316;SDS011;3699;51.462;6.696;2023-04-15T10:52:49;4.87;;;4.33;;
7316;SDS011;3699;51.462;6.696;2023-04-15T10:55:18;7.03;;;4.40;;
7316;SDS011;3699;51.462;6.696;2023-04-15T10:57:46;3.97;;;3.60;;
7316;SDS011;3699;51.462;6.696;2023-04-15T11:00:17;4.20;;;3.67;;
7316;SDS011;3699;51.462;6.696;2023-04-15T11:02:46;4.83;;;4.37;;
7316;SDS011;3699;51.462;6.696;2023-04-15T11:05:15;5.90;;;4.63;;
7316;SDS011;3699;51.462;6.696;2023-04-15T11:07:49;6.30;;;5.70;;
7316;SDS011;3699;51.462;6.696;2023-04-15T11:13:19;8.37;;;5.70;;
7316;SDS011;3699;51.462;6.696;2023-04-15T11:15:53;7.40;;;6.07;;
7316;SDS011;3699;51.462;6.696;2023-04-15T11:18:22;5.70;;;5.10;;
7316;SDS011;3699;51.462;6.696;2023-04-15T11:20:53;5.90;;;5.23;;
7316;SDS011;3699;51.462;6.696;2023-04-15T11:23:26;5.63;;;5.00;;
7316;SDS011;3699;51.462;6.696;2023-04-15T11:25:54;5.93;;;4.87;;
7316;SDS011;3699;51.462;6.696;2023-04-15T11:28:23;5.90;;;5.30;;
7316;SDS011;3699;51.462;6.696;2023-04-15T11:30:51;7.00;;;5.53;;
7316;SDS011;3699;51.462;6.696;2023-04-15T11:33:18;7.10;;;5.20;;
7316;SDS011;3699;51.462;6.696;2023-04-15T11:35:44;5.90;;;4.80;;
7316;SDS011;3699;51.462;6.696;2023-04-15T11:38:13;7.50;;;4.87;;
7316;SDS011;3699;51.462;6.696;2023-04-15T11:40:40;7.70;;;5.60;;
7316;SDS011;3699;51.462;6.696;2023-04-15T11:43:08;8.47;;;5.63;;
7316;SDS011;3699;51.462;6.696;2023-04-15T11:45:37;13.37;;;10.73;;
7316;SDS011;3699;51.462;6.696;2023-04-15T11:48:12;13.37;;;9.90;;
7316;SDS011;3699;51.462;6.696;2023-04-15T11:50:45;7.37;;;5.00;;
7316;SDS011;3699;51.462;6.696;2023-04-15T11:53:20;5.43;;;4.53;;
7316;SDS011;3699;51.462;6.696;2023-04-15T11:55:48;7.33;;;5.00;;
7316;SDS011;3699;51.462;6.696;2023-04-15T11:58:16;5.27;;;4.57;;
7316;SDS011;3699;51.462;6.696;2023-04-15T12:00:47;4.70;;;4.20;;
7316;SDS011;3699;51.462;6.696;2023-04-15T12:03:17;4.63;;;4.03;;
7316;SDS011;3699;51.462;6.696;2023-04-15T12:06:07;5.73;;;4.53;;
7316;SDS011;3699;51.462;6.696;2023-04-15T12:08:56;6.43;;;4.57;;
7316;SDS011;3699;51.462;6.696;2023-04-15T12:11:30;6.40;;;4.47;;
7316;SDS011;3699;51.462;6.696;2023-04-15T12:14:01;4.67;;;4.17;;
7316;SDS011;3699;51.462;6.696;2023-04-15T12:16:29;4.80;;;4.30;;
7316;SDS011;3699;51.462;6.696;2023-04-15T12:18:57;4.63;;;4.13;;
7316;SDS011;3699;51.462;6.696;2023-04-15T12:21:25;5.13;;;4.47;;
7316;SDS011;3699;51.462;6.696;2023-04-15T12:23:53;5.97;;;4.67;;
7316;SDS011;3699;51.462;6.696;2023-04-15T12:26:26;5.27;;;4.77;;
7316;SDS011;3699;51.462;6.696;2023-04-15T12:28:53;4.57;;;4.10;;
7316;SDS011;3699;51.462;6.696;2023-04-15T12:31:21;5.97;;;4.77;;
7316;SDS011;3699;51.462;6.696;2023-04-15T12:33:48;6.70;;;4.60;;
7316;SDS011;3699;51.462;6.696;2023-04-15T12:36:15;5.47;;;4.37;;
7316;SDS011;3699;51.462;6.696;2023-04-15T12:38:42;4.10;;;3.70;;
7316;SDS011;3699;51.462;6.696;2023-04-15T12:41:10;4.20;;;3.60;;
7316;SDS011;3699;51.462;6.696;2023-04-15T12:43:37;4.83;;;3.77;;
7316;SDS011;3699;51.462;6.696;2023-04-15T12:46:03;3.83;;;3.40;;
7316;SDS011;3699;51.462;6.696;2023-04-15T12:48:30;4.73;;;3.97;;
7316;SDS011;3699;51.462;6.696;2023-04-15T12:50:58;4.00;;;3.60;;
7316;SDS011;3699;51.462;6.696;2023-04-15T12:53:25;4.07;;;3.67;;
7316;SDS011;3699;51.462;6.696;2023-04-15T12:55:52;4.50;;;4.10;;
7316;SDS011;3699;51.462;6.696;2023-04-15T12:58:21;5.33;;;4.53;;
7316;SDS011;3699;51.462;6.696;2023-04-15T13:00:47;7.27;;;4.13;;
7316;SDS011;3699;51.462;6.696;2023-04-15T13:03:14;8.07;;;4.50;;
7316;SDS011;3699;51.462;6.696;2023-04-15T13:05:51;6.27;;;4.50;;
7316;SDS011;3699;51.462;6.696;2023-04-15T13:08:18;6.90;;;3.80;;
7316;SDS011;3699;51.462;6.696;2023-04-15T13:10:44;4.90;;;3.80;;
7316;SDS011;3699;51.462;6.696;2023-04-15T13:13:11;4.80;;;3.80;;
7316;SDS011;3699;51.462;6.696;2023-04-15T13:15:39;4.63;;;3.67;;
7316;SDS011;3699;51.462;6.696;2023-04-15T13:18:09;4.43;;;3.40;;
7316;SDS011;3699;51.462;6.696;2023-04-15T13:20:36;5.03;;;3.60;;
7316;SDS011;3699;51.462;6.696;2023-04-15T13:23:03;3.60;;;3.27;;
7316;SDS011;3699;51.462;6.696;2023-04-15T13:25:29;3.43;;;3.13;;
7316;SDS011;3699;51.462;6.696;2023-04-15T13:27:56;5.00;;;3.70;;
7316;SDS011;3699;51.462;6.696;2023-04-15T13:30:23;3.27;;;3.00;;
7316;SDS011;3699;51.462;6.696;2023-04-15T13:32:51;3.30;;;2.93;;
7316;SDS011;3699;51.462;6.696;2023-04-15T13:35:18;3.47;;;3.17;;
7316;SDS011;3699;51.462;6.696;2023-04-15T13:37:45;8.37;;;3.87;;
7316;SDS011;3699;51.462;6.696;2023-04-15T13:40:12;4.50;;;3.40;;
7316;SDS011;3699;51.462;6.696;2023-04-15T13:42:39;4.40;;;3.47;;
7316;SDS011;3699;51.462;6.696;2023-04-15T13:45:07;3.57;;;3.20;;
7316;SDS011;3699;51.462;6.696;2023-04-15T13:47:34;4.27;;;3.80;;
7316;SDS011;3699;51.462;6.696;2023-04-15T13:50:03;7.27;;;3.90;;
7316;SDS011;3699;51.462;6.696;2023-04-15T13:52:30;6.47;;;4.43;;
7316;SDS011;3699;51.462;6.696;2023-04-15T13:54:56;4.20;;;3.47;;
7316;SDS011;3699;51.462;6.696;2023-04-15T13:57:24;5.03;;;4.03;;
7316;SDS011;3699;51.462;6.696;2023-04-15T13:59:50;3.93;;;3.30;;
7316;SDS011;3699;51.462;6.696;2023-04-15T14:02:19;5.57;;;3.57;;
7316;SDS011;3699;51.462;6.696;2023-04-15T14:04:47;4.47;;;3.30;;
7316;SDS011;3699;51.462;6.696;2023-04-15T14:07:15;3.90;;;3.33;;
7316;SDS011;3699;51.462;6.696;2023-04-15T14:09:42;3.90;;;3.17;;
7316;SDS011;3699;51.462;6.696;2023-04-15T14:12:09;5.20;;;3.43;;
7316;SDS011;3699;51.462;6.696;2023-04-15T14:14:36;3.53;;;3.23;;
7316;SDS011;3699;51.462;6.696;2023-04-15T14:17:02;5.97;;;3.40;;
7316;SDS011;3699;51.462;6.696;2023-04-15T14:19:29;3.67;;;2.93;;
7316;SDS011;3699;51.462;6.696;2023-04-15T14:21:56;3.20;;;2.90;;
7316;SDS011;3699;51.462;6.696;2023-04-15T14:24:24;3.20;;;2.80;;
7316;SDS011;3699;51.462;6.696;2023-04-15T14:26:51;3.37;;;3.07;;
7316;SDS011;3699;51.462;6.696;2023-04-15T14:29:18;6.03;;;2.90;;
7316;SDS011;3699;51.462;6.696;2023-04-15T14:31:45;3.80;;;2.90;;
7316;SDS011;3699;51.462;6.696;2023-04-15T14:34:12;3.20;;;2.90;;
7316;SDS011;3699;51.462;6.696;2023-04-15T14:36:39;5.50;;;3.80;;
7316;SDS011;3699;51.462;6.696;2023-04-15T14:39:06;3.60;;;2.80;;
7316;SDS011;3699;51.462;6.696;2023-04-15T14:41:34;6.03;;;3.50;;
7316;SDS011;3699;51.462;6.696;2023-04-15T14:44:01;3.83;;;3.40;;
7316;SDS011;3699;51.462;6.696;2023-04-15T14:46:28;4.33;;;3.17;;
7316;SDS011;3699;51.462;6.696;2023-04-15T14:48:55;3.17;;;2.87;;
7316;SDS011;3699;51.462;6.696;2023-04-15T14:51:22;11.57;;;3.27;;
7316;SDS011;3699;51.462;6.696;2023-04-15T14:53:48;6.03;;;3.60;;
7316;SDS011;3699;51.462;6.696;2023-04-15T14:56:15;3.63;;;3.00;;
7316;SDS011;3699;51.462;6.696;2023-04-15T14:58:43;4.80;;;3.20;;
7316;SDS011;3699;51.462;6.696;2023-04-15T15:01:10;2.97;;;2.67;;
7316;SDS011;3699;51.462;6.696;2023-04-15T15:03:37;4.67;;;3.27;;
7316;SDS011;3699;51.462;6.696;2023-04-15T15:06:04;7.30;;;3.20;;
7316;SDS011;3699;51.462;6.696;2023-04-15T15:08:31;3.67;;;3.03;;